Time;durP1;ratioP1;P1;durP2;ratioP2;P2;SDS_P1;SDS_P2;PMS_P1;PMS_P2;Temp;Humidity;BMP_temperature;BMP_pressure;BME280_temperature;BME280_humidity;BME280_pressure;Samples;Min_cycle;Max_cycle;Signal;HPM_P1;HPM_P2
2021/11/06 00:01:26;;;;;;;29.93;23.27;;;5.90;99.90;;;;;;5039626;28;20994;-88
2021/11/06 00:03:52;;;;;;;30.33;23.73;;;5.90;99.90;;;;;;5044573;28;20432;-88
2021/11/06 00:06:19;;;;;;;30.63;23.67;;;5.90;99.90;;;;;;5057653;28;20481;-88
2021/11/06 00:08:46;;;;;;;34.07;25.60;;;5.80;99.90;;;;;;5050586;28;20433;-89
2021/11/06 00:11:23;;;;;;;34.10;27.37;;;5.80;99.90;;;;;;5058161;28;20453;-89
2021/11/06 00:13:50;;;;;;;28.57;23.90;;;5.70;99.90;;;;;;5056144;28;20435;-89
2021/11/06 00:16:17;;;;;;;28.03;21.37;;;5.70;99.90;;;;;;5039413;28;20442;-88
2021/11/06 00:19:00;;;;;;;28.47;23.00;;;5.70;99.90;;;;;;5044209;28;20596;-89
2021/11/06 00:21:27;;;;;;;24.63;20.10;;;5.70;99.90;;;;;;5037517;28;20453;-89
2021/11/06 00:23:54;;;;;;;27.07;22.13;;;5.60;99.90;;;;;;5039300;28;20447;-89
2021/11/06 00:26:22;;;;;;;26.90;21.93;;;5.50;99.90;;;;;;5053580;28;20484;-89
2021/11/06 00:28:49;;;;;;;28.33;22.27;;;5.50;99.90;;;;;;5044112;28;20465;-89
2021/11/06 00:31:16;;;;;;;23.67;20.43;;;5.50;99.90;;;;;;5038368;28;20946;-89
2021/11/06 00:33:42;;;;;;;22.00;19.10;;;5.50;99.90;;;;;;5040161;28;20442;-89
2021/11/06 00:36:09;;;;;;;22.53;19.73;;;5.40;99.90;;;;;;5038210;28;20455;-89
2021/11/06 00:38:36;;;;;;;23.30;19.73;;;5.40;99.90;;;;;;5036065;28;20445;-89
2021/11/06 00:41:03;;;;;;;22.93;18.70;;;5.40;99.90;;;;;;5034044;28;20457;-89
2021/11/06 00:43:31;;;;;;;25.60;19.43;;;5.40;99.90;;;;;;5035410;28;20453;-89
2021/11/06 00:45:58;;;;;;;19.93;16.33;;;5.50;99.90;;;;;;5034447;28;20445;-89
2021/11/06 00:48:25;;;;;;;21.43;17.80;;;5.50;99.90;;;;;;5034044;28;20445;-89
2021/11/06 00:50:51;;;;;;;22.30;16.13;;;5.60;99.90;;;;;;5033673;28;20450;-88
2021/11/06 00:53:18;;;;;;;21.63;19.33;;;5.50;99.90;;;;;;5034546;28;20826;-89
2021/11/06 00:55:45;;;;;;;18.90;16.97;;;5.60;99.90;;;;;;5042074;28;20455;-89
2021/11/06 00:58:12;;;;;;;22.00;17.80;;;5.60;99.90;;;;;;5046476;28;20422;-89
2021/11/06 01:00:40;;;;;;;21.73;18.00;;;5.50;99.90;;;;;;5056846;28;20473;-88
2021/11/06 01:03:07;;;;;;;21.03;18.57;;;5.60;99.90;;;;;;5040006;28;20438;-89
2021/11/06 01:05:34;;;;;;;19.97;17.83;;;5.60;99.90;;;;;;5035109;28;20942;-88
2021/11/06 01:08:01;;;;;;;23.13;19.00;;;5.60;99.90;;;;;;5031664;28;20477;-89
2021/11/06 01:10:29;;;;;;;20.20;18.00;;;5.70;99.90;;;;;;5035876;28;20449;-89
2021/11/06 01:12:56;;;;;;;23.00;18.20;;;5.70;99.90;;;;;;5034412;28;20457;-89
2021/11/06 01:15:23;;;;;;;19.57;17.13;;;5.70;99.90;;;;;;5034284;28;20437;-89
2021/11/06 01:17:51;;;;;;;21.30;18.47;;;5.70;99.90;;;;;;5033490;28;20453;-90
2021/11/06 01:20:18;;;;;;;19.60;17.50;;;5.80;99.90;;;;;;5033696;28;20498;-88
2021/11/06 01:22:45;;;;;;;22.47;19.27;;;5.80;99.90;;;;;;5031429;28;21061;-89
2021/11/06 01:25:13;;;;;;;20.40;18.40;;;5.80;99.90;;;;;;5034297;28;20507;-89
2021/11/06 01:27:40;;;;;;;24.57;18.93;;;5.90;99.90;;;;;;5032507;28;20488;-89
2021/11/06 01:30:08;;;;;;;25.40;19.87;;;5.90;99.90;;;;;;5033851;28;20469;-89
2021/11/06 01:32:35;;;;;;;24.80;20.33;;;5.90;99.90;;;;;;5038388;28;20453;-89
2021/11/06 01:35:05;;;;;;;23.77;18.53;;;5.90;99.90;;;;;;5056770;28;20444;-89
2021/11/06 01:37:32;;;;;;;22.97;18.40;;;6.00;99.90;;;;;;5036608;28;20441;-89
2021/11/06 01:39:59;;;;;;;24.60;19.87;;;6.00;99.90;;;;;;5030358;28;20480;-88
2021/11/06 01:42:27;;;;;;;31.20;23.30;;;6.00;99.90;;;;;;5030875;28;20453;-89
2021/11/06 01:44:54;;;;;;;28.80;23.07;;;6.00;99.90;;;;;;5034448;28;20536;-89
2021/11/06 01:47:21;;;;;;;30.10;20.80;;;6.10;99.90;;;;;;5045633;28;20480;-89
2021/11/06 01:49:48;;;;;;;28.00;22.17;;;6.10;99.90;;;;;;5043686;28;20465;-89
2021/11/06 01:52:16;;;;;;;26.60;22.10;;;6.10;99.90;;;;;;5044820;28;20440;-90
2021/11/06 01:54:43;;;;;;;29.13;22.50;;;6.10;99.90;;;;;;5054241;28;20452;-89
2021/11/06 01:57:10;;;;;;;30.20;23.63;;;6.20;99.90;;;;;;5043022;28;20447;-89
2021/11/06 01:59:37;;;;;;;33.57;24.47;;;6.20;99.90;;;;;;5047578;28;20471;-89
2021/11/06 02:02:04;;;;;;;40.77;25.40;;;6.30;99.90;;;;;;5041180;28;20483;-89
2021/11/06 02:04:31;;;;;;;37.60;27.20;;;6.30;99.90;;;;;;5031261;28;20446;-89
2021/11/06 02:06:58;;;;;;;36.33;26.70;;;6.30;99.90;;;;;;5037788;28;20811;-89
2021/11/06 02:09:26;;;;;;;36.67;28.63;;;6.40;99.90;;;;;;5036570;28;20472;-89
2021/11/06 02:15:18;;;;;;;38.73;27.27;;;6.40;99.90;;;;;;5058724;28;20433;-89
2021/11/06 02:17:46;;;;;;;40.27;28.40;;;6.40;99.90;;;;;;5060706;28;20493;-88
2021/11/06 02:20:14;;;;;;;48.33;28.60;;;6.40;99.90;;;;;;5060134;28;20499;-89
2021/11/06 02:22:43;;;;;;;46.07;28.40;;;6.40;99.90;;;;;;5060340;28;20436;-88
2021/11/06 02:25:11;;;;;;;42.80;28.43;;;6.50;99.90;;;;;;5060438;28;20497;-86
2021/11/06 02:27:39;;;;;;;57.40;30.70;;;6.50;99.90;;;;;;5059747;28;20479;-89
2021/11/06 02:30:10;;;;;;;55.80;32.60;;;6.40;99.90;;;;;;5059092;28;20465;-89
2021/11/06 02:32:37;;;;;;;52.60;29.10;;;6.40;99.90;;;;;;5057185;28;20437;-89
2021/11/06 02:35:05;;;;;;;67.07;29.33;;;6.40;99.90;;;;;;5049106;28;20453;-89
2021/11/06 02:37:32;;;;;;;68.73;31.30;;;6.40;99.90;;;;;;5044368;28;20545;-90
2021/11/06 02:40:01;;;;;;;63.10;32.37;;;6.30;99.90;;;;;;5045928;28;20497;-89
2021/11/06 02:42:28;;;;;;;51.97;29.40;;;6.30;99.90;;;;;;5037672;28;20477;-90
2021/11/06 02:44:54;;;;;;;64.30;30.43;;;6.30;99.90;;;;;;5037308;28;20456;-89
2021/11/06 02:47:21;;;;;;;56.40;27.07;;;6.30;99.90;;;;;;5035367;28;20488;-88
2021/11/06 02:49:48;;;;;;;50.73;27.50;;;6.20;99.90;;;;;;5036447;28;20472;-89
2021/11/06 02:52:16;;;;;;;46.23;29.63;;;6.20;99.90;;;;;;5036604;28;20450;-88
2021/11/06 02:54:42;;;;;;;45.70;28.20;;;6.20;99.90;;;;;;5036514;28;20956;-89
2021/11/06 02:57:13;;;;;;;50.33;25.73;;;6.20;99.90;;;;;;5035645;28;20440;-89
2021/11/06 02:59:39;;;;;;;47.60;26.00;;;6.20;99.90;;;;;;5036321;28;20472;-89
2021/11/06 03:02:07;;;;;;;32.60;24.10;;;6.10;99.90;;;;;;5036441;28;20449;-89
2021/11/06 03:04:36;;;;;;;35.33;23.73;;;6.10;99.90;;;;;;5036465;28;20433;-89
2021/11/06 03:07:03;;;;;;;43.57;26.17;;;6.20;99.90;;;;;;5048839;28;20465;-89
2021/11/06 03:09:30;;;;;;;40.60;23.97;;;6.10;99.90;;;;;;5037845;28;20466;-89
2021/11/06 03:11:59;;;;;;;39.50;24.90;;;6.00;99.90;;;;;;5040010;28;20463;-89
2021/11/06 03:14:28;;;;;;;31.83;23.20;;;5.90;99.90;;;;;;5041394;28;20458;-89
2021/11/06 03:16:56;;;;;;;32.77;22.27;;;5.80;99.90;;;;;;5042078;28;20445;-89
2021/11/06 03:19:22;;;;;;;27.97;19.70;;;5.70;99.90;;;;;;5048857;28;20464;-88
2021/11/06 03:21:49;;;;;;;33.00;20.40;;;5.60;99.90;;;;;;5054463;28;20489;-89
2021/11/06 03:24:16;;;;;;;30.33;20.97;;;5.50;99.90;;;;;;5053602;28;20434;-88
2021/11/06 03:26:43;;;;;;;35.13;21.40;;;5.30;99.90;;;;;;5040610;28;20441;-89
2021/11/06 03:29:10;;;;;;;30.23;20.60;;;5.30;99.90;;;;;;5035954;28;20464;-88
2021/11/06 03:31:38;;;;;;;35.47;23.57;;;5.40;99.90;;;;;;5038983;28;20468;-88
2021/11/06 03:34:05;;;;;;;30.83;21.40;;;5.40;99.90;;;;;;5038254;28;20487;-88
2021/11/06 03:36:32;;;;;;;28.27;21.50;;;5.40;99.90;;;;;;5050738;28;20422;-86
2021/11/06 03:38:59;;;;;;;32.70;19.30;;;5.50;99.90;;;;;;5053767;28;20472;-86
2021/11/06 03:41:26;;;;;;;36.37;21.03;;;5.50;99.90;;;;;;5041751;28;20433;-87
2021/11/06 03:43:52;;;;;;;33.43;22.37;;;5.50;99.90;;;;;;5044313;28;20480;-80
2021/11/06 03:46:19;;;;;;;27.13;19.83;;;5.40;99.90;;;;;;5050060;28;20428;-80
2021/11/06 03:48:50;;;;;;;28.23;19.87;;;5.40;99.90;;;;;;5041557;28;21021;-81
2021/11/06 03:51:18;;;;;;;30.93;20.00;;;5.50;99.90;;;;;;5035102;28;20795;-88
2021/11/06 03:53:45;;;;;;;26.40;19.60;;;5.60;99.90;;;;;;5037321;28;20520;-89
2021/11/06 03:56:11;;;;;;;25.40;20.87;;;5.60;99.90;;;;;;5035840;28;20789;-89
2021/11/06 03:58:38;;;;;;;26.93;19.90;;;5.60;99.90;;;;;;5040453;28;20451;-89
2021/11/06 04:01:05;;;;;;;26.43;19.20;;;5.60;99.90;;;;;;5048244;28;20449;-89
2021/11/06 04:03:32;;;;;;;28.00;19.43;;;5.70;99.90;;;;;;5043133;28;20441;-89
2021/11/06 04:06:01;;;;;;;29.87;19.40;;;5.70;99.90;;;;;;5044255;28;20441;-89
2021/11/06 04:08:28;;;;;;;27.23;19.17;;;5.70;99.90;;;;;;5033447;28;20588;-89
2021/11/06 04:10:55;;;;;;;26.07;20.53;;;5.70;99.90;;;;;;5039934;28;20982;-88
2021/11/06 04:13:22;;;;;;;25.00;19.57;;;5.60;99.90;;;;;;5041477;28;20962;-89
2021/11/06 04:15:49;;;;;;;26.70;19.73;;;5.70;99.90;;;;;;5037096;28;20457;-89
2021/11/06 04:18:16;;;;;;;32.53;19.40;;;5.70;99.90;;;;;;5037535;28;20433;-89
2021/11/06 04:20:42;;;;;;;27.10;19.60;;;5.60;99.90;;;;;;5036494;28;20473;-88
2021/11/06 04:23:11;;;;;;;30.43;19.57;;;5.60;99.90;;;;;;5036027;28;20822;-88
2021/11/06 04:25:38;;;;;;;24.13;18.53;;;5.50;99.90;;;;;;5035949;28;20442;-88
2021/11/06 04:28:05;;;;;;;25.27;18.67;;;5.50;99.90;;;;;;5045732;28;20477;-89
2021/11/06 04:30:32;;;;;;;30.77;18.70;;;5.40;99.90;;;;;;5035688;28;20453;-88
2021/11/06 04:32:59;;;;;;;31.63;21.10;;;5.40;99.90;;;;;;5049577;28;20437;-88
2021/11/06 04:35:25;;;;;;;27.57;19.60;;;5.40;99.90;;;;;;5051600;28;20460;-88
2021/11/06 04:37:52;;;;;;;28.10;18.40;;;5.50;99.90;;;;;;5056175;28;20439;-89
2021/11/06 04:40:21;;;;;;;29.83;19.57;;;5.50;99.90;;;;;;5056615;28;20483;-89
2021/11/06 04:42:47;;;;;;;26.47;17.13;;;5.40;99.90;;;;;;5056497;28;20504;-89
2021/11/06 04:45:14;;;;;;;24.80;17.40;;;5.30;99.90;;;;;;5042420;28;20477;-89
2021/11/06 04:47:41;;;;;;;24.13;17.73;;;5.30;99.90;;;;;;5037404;28;20461;-89
2021/11/06 04:50:10;;;;;;;23.50;18.20;;;5.30;99.90;;;;;;5040179;28;20462;-88
2021/11/06 04:52:38;;;;;;;28.33;18.50;;;5.30;99.90;;;;;;5039989;28;20437;-88
2021/11/06 04:55:07;;;;;;;29.47;18.87;;;5.30;99.90;;;;;;5038515;28;20449;-88
2021/11/06 04:57:36;;;;;;;27.83;18.50;;;5.30;99.90;;;;;;5035531;28;20442;-88
2021/11/06 05:00:04;;;;;;;27.30;19.00;;;5.20;99.90;;;;;;5043230;28;20922;-88
2021/11/06 05:02:31;;;;;;;26.40;18.30;;;5.20;99.90;;;;;;5034940;28;20958;-89
2021/11/06 05:04:57;;;;;;;30.77;18.87;;;5.20;99.90;;;;;;5035322;28;21030;-88
2021/11/06 05:07:25;;;;;;;27.03;17.97;;;5.20;99.90;;;;;;5054503;28;20449;-88
2021/11/06 05:09:52;;;;;;;35.57;21.60;;;5.20;99.90;;;;;;5056149;28;20461;-89
2021/11/06 05:12:20;;;;;;;31.83;19.67;;;5.20;99.90;;;;;;5046376;28;20446;-88
2021/11/06 05:14:48;;;;;;;28.40;16.80;;;5.20;99.90;;;;;;5031236;28;20482;-88
2021/11/06 05:17:15;;;;;;;28.13;19.00;;;5.20;99.90;;;;;;5034841;28;20456;-89
2021/11/06 05:19:43;;;;;;;30.03;18.50;;;5.20;99.90;;;;;;5033911;28;20866;-88
2021/11/06 05:22:10;;;;;;;27.07;20.20;;;5.20;99.90;;;;;;5038063;28;20441;-88
2021/11/06 05:24:37;;;;;;;22.90;16.87;;;5.20;99.90;;;;;;5037148;28;20471;-89
2021/11/06 05:27:04;;;;;;;27.10;18.50;;;5.30;99.90;;;;;;5038198;28;20479;-88
2021/11/06 05:29:32;;;;;;;32.00;19.93;;;5.30;99.90;;;;;;5033185;28;20483;-88
2021/11/06 05:32:00;;;;;;;28.03;19.50;;;5.30;99.90;;;;;;5038667;28;20968;-88
2021/11/06 05:34:27;;;;;;;29.13;19.03;;;5.20;99.90;;;;;;5036561;28;20445;-87
2021/11/06 05:36:54;;;;;;;26.57;18.50;;;5.20;99.90;;;;;;5036786;28;20968;-88
2021/11/06 05:39:22;;;;;;;23.40;17.90;;;5.10;99.90;;;;;;5034761;28;20476;-89
2021/11/06 05:41:49;;;;;;;26.63;17.53;;;5.20;99.90;;;;;;5037150;28;20473;-89
2021/11/06 05:44:16;;;;;;;25.03;17.90;;;5.10;99.90;;;;;;5044586;28;20502;-88
2021/11/06 05:46:43;;;;;;;28.47;20.40;;;5.10;99.90;;;;;;5059984;28;20451;-89
2021/11/06 05:49:11;;;;;;;26.00;19.03;;;5.10;99.90;;;;;;5046491;28;21044;-88
2021/11/06 05:51:38;;;;;;;24.30;17.40;;;5.10;99.90;;;;;;5039091;28;20425;-88
2021/11/06 05:54:05;;;;;;;26.00;18.80;;;5.10;99.90;;;;;;5037553;28;20436;-88
2021/11/06 05:56:32;;;;;;;23.03;19.40;;;5.10;99.90;;;;;;5031003;28;20449;-88
2021/11/06 05:58:59;;;;;;;25.57;18.37;;;5.10;99.90;;;;;;5035519;28;20477;-87
2021/11/06 06:01:26;;;;;;;23.30;16.63;;;5.10;99.90;;;;;;5030345;28;20461;-88
2021/11/06 06:03:53;;;;;;;20.40;16.80;;;5.10;99.90;;;;;;5035526;28;20451;-88
2021/11/06 06:06:22;;;;;;;20.60;15.90;;;5.10;99.90;;;;;;5050316;28;20455;-88
2021/11/06 06:08:49;;;;;;;16.60;14.07;;;5.10;99.90;;;;;;5040916;28;20481;-88
2021/11/06 06:11:16;;;;;;;22.90;16.67;;;5.00;99.90;;;;;;5046174;28;20829;-88
2021/11/06 06:13:44;;;;;;;21.30;17.03;;;5.00;99.90;;;;;;5037756;28;20442;-88
2021/11/06 06:16:10;;;;;;;22.50;14.50;;;4.90;99.90;;;;;;5039243;28;20453;-88
2021/11/06 06:18:37;;;;;;;20.50;15.27;;;4.90;99.90;;;;;;5036947;28;20441;-87
2021/11/06 06:21:04;;;;;;;18.47;13.83;;;4.90;99.90;;;;;;5050039;28;20465;-89
2021/11/06 06:23:33;;;;;;;18.97;12.93;;;4.90;99.90;;;;;;5031607;28;20453;-88
2021/11/06 06:25:59;;;;;;;15.07;12.40;;;4.90;99.90;;;;;;5033440;28;20448;-88
2021/11/06 06:28:26;;;;;;;14.40;12.90;;;4.90;99.90;;;;;;5039086;28;20481;-88
2021/11/06 06:30:53;;;;;;;14.63;12.63;;;4.90;99.90;;;;;;5038322;28;20548;-88
2021/11/06 06:33:20;;;;;;;16.43;13.90;;;4.80;99.90;;;;;;5035871;28;20445;-88
2021/11/06 06:35:47;;;;;;;16.00;12.17;;;4.90;99.90;;;;;;5037986;28;20446;-88
2021/11/06 06:38:14;;;;;;;21.30;14.40;;;4.90;99.90;;;;;;5045469;28;20455;-88
2021/11/06 06:40:42;;;;;;;17.03;12.70;;;4.90;99.90;;;;;;5037509;28;20461;-88
2021/11/06 06:43:09;;;;;;;17.77;13.30;;;5.00;99.90;;;;;;5043731;28;20450;-88
2021/11/06 06:45:36;;;;;;;20.87;14.07;;;5.00;99.90;;;;;;5042950;28;20445;-88
2021/11/06 06:48:03;;;;;;;21.80;13.63;;;5.00;99.90;;;;;;5046902;28;20483;-88
2021/11/06 06:50:30;;;;;;;22.30;14.37;;;5.10;99.90;;;;;;5048474;28;20452;-87
2021/11/06 06:52:56;;;;;;;34.07;16.47;;;5.10;99.90;;;;;;5060446;28;20437;-87
2021/11/06 06:55:23;;;;;;;21.70;15.57;;;5.10;99.90;;;;;;5060141;28;20430;-87
2021/11/06 06:57:51;;;;;;;24.20;17.73;;;5.10;99.90;;;;;;5059946;28;20500;-88
2021/11/06 07:00:19;;;;;;;30.07;17.43;;;5.10;99.90;;;;;;5053915;28;20477;-88
2021/11/06 07:02:46;;;;;;;24.30;15.90;;;5.20;99.90;;;;;;5051583;28;20437;-88
2021/11/06 07:05:13;;;;;;;32.93;17.33;;;5.20;99.90;;;;;;5049272;28;20482;-88
2021/11/06 07:07:40;;;;;;;33.13;16.13;;;5.20;99.90;;;;;;5047483;28;20503;-88
2021/11/06 07:10:08;;;;;;;31.90;17.40;;;5.30;99.90;;;;;;5044301;28;20488;-87
2021/11/06 07:12:35;;;;;;;36.20;19.40;;;5.20;99.90;;;;;;5044578;28;20450;-88
2021/11/06 07:15:05;;;;;;;34.63;17.60;;;5.30;99.90;;;;;;5035334;28;20536;-88
2021/11/06 07:17:32;;;;;;;30.20;16.53;;;5.30;99.90;;;;;;5030393;28;20452;-88
2021/11/06 07:19:59;;;;;;;32.53;16.60;;;5.30;99.90;;;;;;5038339;28;20483;-89
2021/11/06 07:22:26;;;;;;;44.00;19.30;;;5.30;99.90;;;;;;5048875;28;20453;-89
2021/11/06 07:24:53;;;;;;;46.10;20.60;;;5.30;99.90;;;;;;5049017;28;20518;-89
2021/11/06 07:27:20;;;;;;;34.93;17.47;;;5.30;99.90;;;;;;5051505;28;20444;-90
2021/11/06 07:29:47;;;;;;;32.27;16.43;;;5.30;99.90;;;;;;5058314;28;20492;-91
2021/11/06 07:32:16;;;;;;;35.70;18.90;;;5.30;99.90;;;;;;5058233;28;20477;-90
2021/11/06 07:34:47;;;;;;;37.87;18.73;;;5.30;99.90;;;;;;5058437;28;20528;-91
2021/11/06 07:37:14;;;;;;;29.40;17.00;;;5.40;99.90;;;;;;5055341;28;20453;-90
2021/11/06 07:39:41;;;;;;;40.33;19.90;;;5.40;99.90;;;;;;5055776;28;20516;-88
2021/11/06 07:42:09;;;;;;;39.07;21.27;;;5.50;99.90;;;;;;5050147;28;20441;-90
2021/11/06 07:44:36;;;;;;;28.87;19.77;;;5.50;99.90;;;;;;5042629;28;20464;-88
2021/11/06 07:47:04;;;;;;;31.40;17.27;;;5.50;99.90;;;;;;5038264;28;20456;-91
2021/11/06 07:49:33;;;;;;;35.00;16.27;;;5.50;99.90;;;;;;5036061;28;20491;-91
2021/11/06 07:52:00;;;;;;;33.10;19.13;;;5.50;99.90;;;;;;5036413;28;20503;-90
2021/11/06 07:54:28;;;;;;;34.47;20.40;;;5.50;99.90;;;;;;5036395;28;20453;-89
2021/11/06 07:57:08;;;;;;;31.43;18.40;;;5.60;99.90;;;;;;5035988;28;20456;-90
2021/11/06 07:59:35;;;;;;;29.90;17.47;;;5.50;99.90;;;;;;5029679;28;20470;-90
2021/11/06 08:02:03;;;;;;;27.90;16.77;;;5.60;99.90;;;;;;5024932;28;20449;-90
2021/11/06 08:04:32;;;;;;;29.10;16.70;;;5.60;99.90;;;;;;5037060;28;21194;-89
2021/11/06 08:06:59;;;;;;;29.97;16.90;;;5.70;99.90;;;;;;5057806;28;20461;-90
2021/11/06 08:09:26;;;;;;;25.70;16.80;;;5.70;99.90;;;;;;5048194;28;20507;-89
2021/11/06 08:11:53;;;;;;;24.90;16.60;;;5.70;99.90;;;;;;5039059;28;20463;-89
2021/11/06 08:14:20;;;;;;;21.00;14.37;;;5.70;99.90;;;;;;5048340;28;20484;-90
2021/11/06 08:16:49;;;;;;;24.80;15.90;;;5.70;99.90;;;;;;5044001;28;20450;-90
2021/11/06 08:19:16;;;;;;;22.23;17.07;;;5.70;99.90;;;;;;5039040;28;20554;-90
2021/11/06 08:21:45;;;;;;;27.10;18.20;;;5.70;99.90;;;;;;5022327;28;20545;-90
2021/11/06 08:24:12;;;;;;;29.07;17.90;;;5.80;99.90;;;;;;5040808;28;20445;-90
2021/11/06 08:26:39;;;;;;;21.30;15.27;;;5.90;99.90;;;;;;5036325;28;20449;-91
2021/11/06 08:29:07;;;;;;;28.43;16.60;;;6.00;99.90;;;;;;5036405;28;20477;-90
2021/11/06 08:31:34;;;;;;;21.87;15.07;;;5.90;99.90;;;;;;5037900;28;20446;-89
2021/11/06 08:34:01;;;;;;;23.47;15.93;;;6.00;99.90;;;;;;5038113;28;20524;-90
2021/11/06 08:36:28;;;;;;;19.87;13.37;;;6.00;99.90;;;;;;5043165;28;20442;-89
2021/11/06 08:38:56;;;;;;;17.50;11.57;;;6.00;99.90;;;;;;5057875;28;20512;-91
2021/11/06 08:41:59;;;;;;;21.83;14.77;;;6.10;99.90;;;;;;5057986;28;20445;-90
2021/11/06 08:44:26;;;;;;;21.23;14.40;;;6.10;99.90;;;;;;5057911;28;20500;-90
2021/11/06 08:46:55;;;;;;;20.87;13.47;;;6.10;99.90;;;;;;5057597;28;20456;-89
2021/11/06 08:49:25;;;;;;;21.40;14.67;;;6.20;99.90;;;;;;5050438;28;20477;-89
2021/11/06 08:51:55;;;;;;;17.77;12.97;;;6.20;99.90;;;;;;5056162;28;20452;-90
2021/11/06 08:54:25;;;;;;;20.10;13.80;;;6.30;99.90;;;;;;5056122;28;20453;-89
2021/11/06 08:56:53;;;;;;;16.20;12.70;;;6.20;99.90;;;;;;5054648;28;20461;-89
2021/11/06 08:59:22;;;;;;;21.03;14.60;;;6.30;99.90;;;;;;5026951;28;20528;-90
2021/11/06 09:01:52;;;;;;;19.93;14.57;;;6.30;99.90;;;;;;5026767;28;20476;-90
2021/11/06 09:04:20;;;;;;;22.70;13.00;;;6.30;99.90;;;;;;5032086;28;20517;-90
2021/11/06 09:06:48;;;;;;;18.63;12.47;;;6.40;99.90;;;;;;5054073;28;20464;-90
2021/11/06 09:09:17;;;;;;;18.60;13.10;;;6.40;99.90;;;;;;5053828;28;20477;-89
2021/11/06 09:11:48;;;;;;;20.87;13.80;;;6.40;99.90;;;;;;5050685;28;20468;-91
2021/11/06 09:14:15;;;;;;;20.03;13.10;;;6.40;99.90;;;;;;5045849;28;20526;-91
2021/11/06 09:16:46;;;;;;;17.07;13.17;;;6.50;99.90;;;;;;5038105;28;20462;-90
2021/11/06 09:19:13;;;;;;;18.67;12.67;;;6.60;99.90;;;;;;5038184;28;20535;-90
2021/11/06 09:21:44;;;;;;;20.10;13.67;;;6.70;99.90;;;;;;5037947;28;20440;-90
2021/11/06 09:24:11;;;;;;;16.37;13.47;;;6.80;99.90;;;;;;5045884;28;20467;-88
2021/11/06 09:26:43;;;;;;;19.97;12.57;;;6.80;99.90;;;;;;5038897;28;20437;-87
2021/11/06 09:29:12;;;;;;;15.33;12.60;;;6.80;99.90;;;;;;5036907;28;20504;-89
2021/11/06 09:31:40;;;;;;;18.20;13.40;;;7.00;99.90;;;;;;5037299;28;20527;-89
2021/11/06 09:34:07;;;;;;;15.83;12.40;;;7.00;99.90;;;;;;5037698;28;20445;-88
2021/11/06 09:36:34;;;;;;;16.67;13.40;;;7.00;99.90;;;;;;5038803;28;20449;-88
2021/11/06 09:39:04;;;;;;;18.60;13.27;;;7.00;99.90;;;;;;5040440;28;20465;-88
2021/11/06 09:41:32;;;;;;;18.90;13.10;;;7.00;99.90;;;;;;5035365;28;20433;-89
2021/11/06 09:43:59;;;;;;;17.50;12.13;;;7.10;99.90;;;;;;5035241;28;20530;-87
2021/11/06 09:46:27;;;;;;;17.33;13.70;;;7.10;99.90;;;;;;5035533;28;20519;-89
2021/11/06 09:48:55;;;;;;;18.97;13.70;;;7.00;99.90;;;;;;5033733;28;20514;-89
2021/11/06 09:51:23;;;;;;;18.77;13.10;;;7.10;99.90;;;;;;5035800;28;20455;-88
2021/11/06 09:53:52;;;;;;;19.03;13.80;;;7.10;99.90;;;;;;5033760;28;20456;-88
2021/11/06 09:56:21;;;;;;;18.67;14.17;;;7.30;99.90;;;;;;5035932;28;20477;-86
2021/11/06 09:58:49;;;;;;;20.30;14.87;;;7.30;99.90;;;;;;5032523;28;20445;-88
2021/11/06 10:01:17;;;;;;;20.17;15.03;;;7.30;99.90;;;;;;5039375;28;20433;-87
2021/11/06 10:03:45;;;;;;;27.53;17.07;;;7.40;99.90;;;;;;5038565;28;20452;-88
2021/11/06 10:06:18;;;;;;;25.50;16.67;;;7.40;99.90;;;;;;5035924;28;20627;-88
2021/11/06 10:08:48;;;;;;;27.53;18.03;;;7.40;99.90;;;;;;5039584;28;20437;-87
2021/11/06 10:11:18;;;;;;;26.30;18.57;;;7.40;99.90;;;;;;5038696;28;20434;-89
2021/11/06 10:13:58;;;;;;;20.77;15.87;;;7.40;99.90;;;;;;5037632;28;20473;-89
2021/11/06 10:16:32;;;;;;;27.57;17.87;;;7.40;99.90;;;;;;5037299;28;20429;-88
2021/11/06 10:19:12;;;;;;;25.87;17.30;;;7.40;99.90;;;;;;5034219;28;20445;-89
2021/11/06 10:21:40;;;;;;;26.37;17.97;;;7.40;99.90;;;;;;5050449;28;20434;-88
2021/11/06 10:24:07;;;;;;;24.03;18.80;;;7.30;99.90;;;;;;5048398;28;20475;-89
2021/11/06 10:26:35;;;;;;;28.73;20.20;;;7.30;99.90;;;;;;5051802;28;20421;-88
2021/11/06 10:29:08;;;;;;;24.97;17.73;;;7.20;99.90;;;;;;5058802;28;20517;-90
2021/11/06 10:31:58;;;;;;;28.90;19.90;;;7.30;99.90;;;;;;5058981;28;20472;-89
2021/11/06 10:34:32;;;;;;;27.30;20.50;;;7.30;99.90;;;;;;5045278;28;20516;-89
2021/11/06 10:37:00;;;;;;;24.33;17.50;;;7.30;99.90;;;;;;5042086;28;20458;-89
2021/11/06 10:39:28;;;;;;;28.70;19.10;;;7.40;99.90;;;;;;5042926;28;20471;-87
2021/11/06 10:42:10;;;;;;;27.23;19.33;;;7.50;99.90;;;;;;5048288;28;20429;-87
2021/11/06 10:44:37;;;;;;;32.43;19.90;;;7.50;99.90;;;;;;5040844;28;20430;-88
2021/11/06 10:47:04;;;;;;;30.63;21.03;;;7.60;99.90;;;;;;5039183;28;20458;-88
2021/11/06 10:49:36;;;;;;;29.20;20.20;;;7.70;99.90;;;;;;5040270;28;20481;-88
2021/11/06 10:52:05;;;;;;;25.70;21.50;;;7.70;99.90;;;;;;5043371;28;20437;-87
2021/11/06 10:54:32;;;;;;;21.90;18.30;;;7.90;99.90;;;;;;5049479;28;20528;-88
2021/11/06 10:57:03;;;;;;;26.73;20.10;;;7.90;99.90;;;;;;5043929;28;20433;-88
2021/11/06 10:59:30;;;;;;;28.47;20.33;;;8.00;99.90;;;;;;5045560;28;20496;-88
2021/11/06 11:01:57;;;;;;;26.10;19.67;;;7.90;99.90;;;;;;5037143;28;20558;-88
2021/11/06 11:04:25;;;;;;;26.77;20.17;;;8.00;99.90;;;;;;5034894;28;20950;-88
2021/11/06 11:06:56;;;;;;;28.37;20.53;;;7.90;99.90;;;;;;5035563;28;21021;-87
2021/11/06 11:09:28;;;;;;;27.00;20.57;;;7.90;99.90;;;;;;5039526;28;20532;-91
2021/11/06 11:11:57;;;;;;;28.23;21.40;;;8.00;99.90;;;;;;5048890;28;20480;-88
2021/11/06 11:14:26;;;;;;;31.27;21.50;;;8.10;99.90;;;;;;5038174;28;20813;-88
2021/11/06 11:17:01;;;;;;;32.63;21.40;;;8.00;99.90;;;;;;5038962;28;20449;-91
2021/11/06 11:19:36;;;;;;;32.90;23.10;;;7.90;99.90;;;;;;5075540;22;20554;-92
2021/11/06 11:22:05;;;;;;;29.47;23.27;;;8.00;99.90;;;;;;5096981;28;20435;-92
2021/11/06 11:24:32;;;;;;;29.73;20.00;;;8.00;99.90;;;;;;5060496;28;20437;-92
2021/11/06 11:27:00;;;;;;;31.20;22.97;;;8.00;99.90;;;;;;5066256;28;20433;-91
2021/11/06 11:29:31;;;;;;;31.50;22.77;;;8.00;99.90;;;;;;5079528;28;20532;-90
2021/11/06 11:31:58;;;;;;;29.97;22.53;;;8.10;99.90;;;;;;5061721;28;20464;-91
2021/11/06 11:34:26;;;;;;;30.10;23.33;;;8.20;99.90;;;;;;5057651;28;20808;-91
2021/11/06 11:36:55;;;;;;;36.20;23.80;;;8.20;99.90;;;;;;5055247;28;20448;-90
2021/11/06 11:39:25;;;;;;;30.20;23.10;;;8.20;99.90;;;;;;5053797;28;20890;-91
2021/11/06 11:42:16;;;;;;;32.60;23.60;;;8.40;99.90;;;;;;5053991;28;20453;-90
2021/11/06 11:45:11;;;;;;;36.00;25.60;;;8.40;99.90;;;;;;5058135;28;20470;-90
2021/11/06 11:47:42;;;;;;;29.23;22.53;;;8.50;99.90;;;;;;5050466;28;20907;-90
2021/11/06 11:50:14;;;;;;;30.80;23.00;;;8.40;99.90;;;;;;5070748;28;20494;-90
2021/11/06 11:52:43;;;;;;;34.40;24.17;;;8.30;99.90;;;;;;5059577;28;20444;-90
2021/11/06 11:55:17;;;;;;;30.17;24.23;;;8.40;99.90;;;;;;5061811;28;20512;-90
2021/11/06 11:57:51;;;;;;;31.50;23.23;;;8.70;99.90;;;;;;5055355;28;20475;-90
2021/11/06 12:00:36;;;;;;;31.80;24.93;;;8.90;99.90;;;;;;5056174;28;20515;-90
2021/11/06 12:03:05;;;;;;;30.70;24.80;;;9.10;99.90;;;;;;5054661;28;20511;-90
2021/11/06 12:05:37;;;;;;;31.37;23.60;;;8.90;99.90;;;;;;5056209;28;20448;-91
2021/11/06 12:08:30;;;;;;;30.30;24.50;;;9.00;99.90;;;;;;5056171;28;20434;-90
2021/11/06 12:11:12;;;;;;;31.50;24.17;;;9.10;99.90;;;;;;5059511;28;20484;-90
2021/11/06 12:13:40;;;;;;;29.87;23.23;;;9.70;99.90;;;;;;5056981;28;20440;-90
2021/11/06 12:16:09;;;;;;;27.67;22.53;;;10.10;99.90;;;;;;5058182;28;20516;-91
2021/11/06 12:18:55;;;;;;;32.67;24.67;;;10.30;99.90;;;;;;5056980;28;20463;-91
2021/11/06 12:21:34;;;;;;;29.50;24.73;;;10.60;99.90;;;;;;5055531;28;20532;-91
2021/11/06 12:24:27;;;;;;;29.90;25.03;;;11.50;99.90;;;;;;5055515;28;20436;-90
2021/11/06 12:26:59;;;;;;;28.07;21.47;;;13.40;99.90;;;;;;5055147;28;20512;-90
2021/11/06 12:29:48;;;;;;;29.60;23.10;;;14.80;99.60;;;;;;5053743;28;20484;-92
2021/11/06 12:32:20;;;;;;;27.40;22.93;;;15.60;96.80;;;;;;5056172;28;20457;-91
2021/11/06 12:34:49;;;;;;;25.47;21.73;;;15.70;94.70;;;;;;5058301;28;20443;-92
2021/11/06 12:37:45;;;;;;;27.30;23.10;;;15.10;94.20;;;;;;5069890;28;20440;-91
2021/11/06 12:40:20;;;;;;;27.23;22.87;;;13.40;96.10;;;;;;5069632;28;20450;-91
2021/11/06 12:43:12;;;;;;;32.47;24.73;;;12.40;98.40;;;;;;5071869;28;20462;-91
2021/11/06 12:45:40;;;;;;;28.63;23.90;;;11.50;99.90;;;;;;5069113;28;20442;-91
2021/11/06 12:48:11;;;;;;;30.17;23.67;;;10.90;99.90;;;;;;5064149;28;20482;-91